Burr Oak, Kansas
Current Conditions -  °F | °C
As of 5:55 PM on Friday 19 Dec 2014 (Local Time) from KCNK Reporting Station
Haze Haze  
Wind Chill: 26°   Ceiling: 700
Heat Index: 32°   Visibility: 6mi
Dew Point: 31°   Wind: 7mph
Humidity: 96%   Direction: 160°SSE
Pressure: 30.13"   Gusts: NA
Location:  39.87°N, 98.31°W
Report Text: KCNK 192355Z AUTO 16006KT 6SM BR OVC007 00/M01 A3013 RMK AO2 SLP217 T00001006 10006 21006 56003
Loading
Personal Weather Stations






























Interactive Weather Map New forecast layout! Learn more

10-Day Weather Forecast

Advertisements
Track Severe Weather on mobile